Time;durP1;ratioP1;P1;durP2;ratioP2;P2;SDS_P1;SDS_P2;PMS_P1;PMS_P2;Temp;Humidity;BMP_temperature;BMP_pressure;BME280_temperature;BME280_humidity;BME280_pressure;Samples;Min_cycle;Max_cycle;Signal;HPM_P1;HPM_P2
2022/11/04 00:02:07;;;;;;;37.93;18.83;;;;;;;7.61;89.32;98462.77;2171470;81;20968;-84
2022/11/04 00:08:28;;;;;;;32.43;18.60;;;;;;;7.55;90.45;98444.47;2159736;82;21045;-83
2022/11/04 00:14:48;;;;;;;36.33;18.90;;;;;;;7.54;89.86;98437.11;2171185;82;20961;-83
2022/11/04 00:17:48;;;;;;;80.50;46.77;;;;;;;7.52;90.64;98436.63;2172133;81;20957;-82
2022/11/04 00:30:45;;;;;;;40.03;20.07;;;;;;;7.51;90.17;98438.77;2171120;82;20997;-81
2022/11/04 00:33:46;;;;;;;34.03;19.80;;;;;;;7.51;89.98;98447.44;2171473;81;21205;-82
2022/11/04 00:36:46;;;;;;;30.23;19.80;;;;;;;7.54;90.08;98444.90;2171600;81;20937;-82
2022/11/04 00:39:46;;;;;;;33.13;19.10;;;;;;;7.57;89.95;98438.87;2170140;81;20965;-83
2022/11/04 00:42:47;;;;;;;37.87;20.93;;;;;;;7.58;90.01;98439.33;2170521;81;21079;-84
2022/11/04 00:45:47;;;;;;;35.90;20.87;;;;;;;7.59;89.79;98434.16;2170788;81;21320;-84
2022/11/04 00:48:48;;;;;;;36.53;20.20;;;;;;;7.60;89.63;98429.42;2170637;81;20948;-84
2022/11/04 00:51:48;;;;;;;37.87;21.37;;;;;;;7.59;89.58;98426.38;2170336;81;20964;-83
2022/11/04 00:54:49;;;;;;;43.60;21.33;;;;;;;7.57;89.84;98428.49;2170234;81;20897;-83
2022/11/04 00:57:49;;;;;;;34.17;19.97;;;;;;;7.55;90.27;98425.88;2170691;81;20992;-84
2022/11/04 01:00:49;;;;;;;35.03;21.53;;;;;;;7.56;90.13;98418.53;2170420;81;20961;-83
2022/11/04 01:03:50;;;;;;;35.00;21.03;;;;;;;7.55;90.07;98415.91;2171729;81;21004;-84
2022/11/04 01:06:50;;;;;;;37.00;21.47;;;;;;;7.57;90.43;98418.98;2170783;81;20921;-82
2022/11/04 01:09:51;;;;;;;36.30;21.87;;;;;;;7.58;90.38;98415.53;2171309;81;20917;-83
2022/11/04 01:12:51;;;;;;;39.00;22.30;;;;;;;7.60;90.74;98407.77;2170273;81;21379;-84
2022/11/04 01:15:51;;;;;;;43.23;23.00;;;;;;;7.60;90.62;98391.75;2170004;81;20949;-83
2022/11/04 01:18:52;;;;;;;40.93;23.83;;;;;;;7.61;90.42;98395.23;2171140;82;20961;-82
2022/11/04 01:21:52;;;;;;;45.53;23.50;;;;;;;7.61;90.87;98389.61;2172747;81;20953;-83
2022/11/04 01:24:53;;;;;;;42.53;22.10;;;;;;;7.61;90.62;98385.71;2170453;81;20973;-83
2022/11/04 01:27:53;;;;;;;36.60;23.07;;;;;;;7.62;90.78;98387.45;2171251;81;21021;-84
2022/11/04 01:30:53;;;;;;;41.23;23.77;;;;;;;7.63;90.86;98384.01;2170572;81;20925;-83
2022/11/04 01:33:54;;;;;;;40.73;22.90;;;;;;;7.63;90.95;98389.20;2171184;81;20946;-83
2022/11/04 01:36:54;;;;;;;42.03;23.47;;;;;;;7.66;90.96;98380.16;2171333;81;20961;-82
2022/11/04 01:39:55;;;;;;;39.03;22.10;;;;;;;7.70;90.74;98378.48;2171054;81;20894;-82
2022/11/04 01:42:55;;;;;;;34.97;21.90;;;;;;;7.73;90.81;98369.87;2170429;81;20928;-82
2022/11/04 01:45:55;;;;;;;35.77;22.80;;;;;;;7.74;90.90;98363.39;2170878;81;20992;-82
2022/11/04 01:48:56;;;;;;;39.93;24.27;;;;;;;7.77;91.05;98359.97;2170126;82;21004;-83
2022/11/04 01:51:56;;;;;;;44.10;26.17;;;;;;;7.78;90.87;98363.02;2168911;81;21051;-82
2022/11/04 01:54:57;;;;;;;39.87;25.00;;;;;;;7.80;90.86;98357.42;2169989;81;21120;-82
2022/11/04 01:57:57;;;;;;;36.10;23.47;;;;;;;7.79;91.03;98353.07;2170522;82;21016;-83
2022/11/04 02:00:57;;;;;;;36.63;22.40;;;;;;;7.82;90.89;98350.55;2169431;81;21012;-83
2022/11/04 02:04:24;;;;;;;39.70;23.93;;;;;;;7.82;91.25;98347.95;2170558;82;21032;-83
2022/11/04 02:07:01;;;;;;;35.73;22.53;;;;;;;7.81;90.81;98341.88;2171049;81;20979;-83
2022/11/04 02:10:01;;;;;;;39.23;22.27;;;;;;;7.85;90.74;98338.48;2171796;81;20929;-83
2022/11/04 02:13:02;;;;;;;40.87;24.37;;;;;;;7.89;90.80;98336.80;2170316;81;21368;-83
2022/11/04 02:16:05;;;;;;;38.10;24.27;;;;;;;7.87;90.70;98337.20;2170570;81;20922;-83
2022/11/04 02:19:05;;;;;;;41.67;24.60;;;;;;;7.87;90.50;98330.70;2171432;81;20945;-83
2022/11/04 02:22:06;;;;;;;43.87;24.70;;;;;;;7.87;90.58;98325.51;2169924;81;20973;-83
2022/11/04 02:25:07;;;;;;;41.37;23.83;;;;;;;7.85;90.78;98316.82;2171337;81;20945;-82
2022/11/04 02:28:06;;;;;;;45.73;26.23;;;;;;;7.84;91.08;98319.84;2171904;82;21000;-83
2022/11/04 02:31:07;;;;;;;36.30;23.50;;;;;;;7.81;90.98;98312.00;2170461;81;21293;-83
2022/11/04 02:34:07;;;;;;;41.10;24.43;;;;;;;7.81;90.78;98308.53;2169902;81;21033;-82
2022/11/04 02:37:08;;;;;;;40.97;24.10;;;;;;;7.82;90.85;98303.78;2171321;81;20961;-83
2022/11/04 02:40:08;;;;;;;40.17;24.10;;;;;;;7.82;90.80;98296.86;2171037;82;22065;-83
2022/11/04 02:43:08;;;;;;;47.03;25.43;;;;;;;7.81;90.82;98284.72;2169398;81;20997;-83
2022/11/04 02:46:09;;;;;;;36.27;23.40;;;;;;;7.82;91.13;98278.67;2172163;81;20933;-82
2022/11/04 02:49:12;;;;;;;41.80;24.57;;;;;;;7.82;91.06;98277.80;2171573;81;21332;-84
2022/11/04 02:52:12;;;;;;;37.47;22.90;;;;;;;7.79;91.03;98271.23;2171699;81;20917;-84
2022/11/04 02:55:13;;;;;;;37.37;22.20;;;;;;;7.77;90.93;98283.33;2170696;81;20972;-83
2022/11/04 02:58:13;;;;;;;45.10;24.00;;;;;;;7.78;91.00;98275.98;2171970;81;21068;-83
2022/11/04 03:01:14;;;;;;;40.83;23.20;;;;;;;7.80;90.85;98283.37;2170680;81;20898;-84
2022/11/04 03:04:14;;;;;;;40.43;23.67;;;;;;;7.80;90.75;98272.58;2170724;81;21012;-83
2022/11/04 03:07:14;;;;;;;37.50;22.87;;;;;;;7.80;90.89;98270.37;2171297;81;20980;-83
2022/11/04 03:10:15;;;;;;;35.87;21.90;;;;;;;7.78;90.79;98264.28;2172184;82;20913;-85
2022/11/04 03:13:15;;;;;;;41.13;23.57;;;;;;;7.76;90.80;98268.59;2170410;81;20981;-83
2022/11/04 03:16:16;;;;;;;51.70;31.87;;;;;;;7.76;90.73;98264.70;2169923;81;20968;-82
2022/11/04 03:19:16;;;;;;;38.40;24.00;;;;;;;7.76;90.78;98255.59;2170079;81;20905;-84
2022/11/04 03:22:16;;;;;;;40.17;22.83;;;;;;;7.74;90.62;98260.77;2170446;82;20990;-84
2022/11/04 03:25:17;;;;;;;34.00;21.77;;;;;;;7.76;90.63;98255.59;2170952;81;21320;-84
2022/11/04 03:28:17;;;;;;;34.50;20.57;;;;;;;7.77;90.65;98259.52;2172538;81;21047;-82
2022/11/04 03:31:18;;;;;;;36.63;21.60;;;;;;;7.79;90.74;98259.54;2170769;81;21023;-85
2022/11/04 03:34:18;;;;;;;36.40;21.53;;;;;;;7.78;90.83;98257.80;2172155;81;21004;-84
2022/11/04 03:37:18;;;;;;;40.60;21.10;;;;;;;7.79;90.45;98256.94;2170016;82;20933;-83
2022/11/04 03:40:19;;;;;;;36.03;21.20;;;;;;;7.81;90.42;98260.47;2170889;81;21273;-84
2022/11/04 03:43:19;;;;;;;34.63;23.03;;;;;;;7.82;90.15;98251.39;2171816;81;20961;-83
2022/11/04 03:46:21;;;;;;;42.43;21.23;;;;;;;7.85;90.31;98248.83;2171147;81;20958;-84
2022/11/04 03:49:21;;;;;;;34.80;21.70;;;;;;;7.88;89.90;98249.30;2170763;81;20957;-83
2022/11/04 03:52:20;;;;;;;30.47;19.90;;;;;;;7.86;89.73;98244.08;2170403;81;20965;-83
2022/11/04 03:55:21;;;;;;;37.27;20.73;;;;;;;7.87;89.76;98238.46;2171232;81;21040;-84
2022/11/04 03:58:21;;;;;;;36.90;20.93;;;;;;;7.85;89.54;98235.84;2171332;81;21000;-85
2022/11/04 04:01:22;;;;;;;33.43;20.27;;;;;;;7.84;89.47;98237.12;2171097;81;21364;-83
2022/11/04 04:04:22;;;;;;;35.27;19.90;;;;;;;7.84;89.33;98230.63;2171497;82;21000;-84
2022/11/04 04:07:22;;;;;;;36.37;20.63;;;;;;;7.85;89.33;98232.37;2170491;81;20949;-84
2022/11/04 04:10:38;;;;;;;36.47;21.20;;;;;;;7.84;89.06;98230.20;2171426;82;21321;-84
2022/11/04 04:13:39;;;;;;;38.87;21.50;;;;;;;7.83;89.17;98227.16;2170748;82;20921;-84
2022/11/04 04:16:39;;;;;;;38.40;20.53;;;;;;;7.83;89.22;98222.38;2171327;81;20922;-84
2022/11/04 04:19:39;;;;;;;31.07;20.00;;;;;;;7.83;89.06;98217.19;2170775;81;21300;-84
2022/11/04 04:22:40;;;;;;;33.67;20.07;;;;;;;7.83;89.00;98219.36;2169680;81;20993;-84
2022/11/04 04:29:01;;;;;;;33.20;18.63;;;;;;;7.82;89.00;98206.34;2169009;82;21024;-84
2022/11/04 04:31:59;;;;;;;28.03;19.20;;;;;;;7.82;89.14;98202.02;2170639;81;20952;-83
2022/11/04 04:45:00;;;;;;;31.40;19.10;;;;;;;7.81;89.12;98199.41;2168528;82;21028;-83
2022/11/04 04:47:59;;;;;;;27.73;19.20;;;;;;;7.82;89.00;98200.72;2166843;81;20960;-82
2022/11/04 04:51:01;;;;;;;42.03;19.93;;;;;;;7.81;89.08;98204.60;2166645;82;21020;-83
2022/11/04 04:54:00;;;;;;;34.67;19.13;;;;;;;7.80;89.09;98201.53;2167234;81;20961;-81
2022/11/04 04:57:01;;;;;;;33.43;19.27;;;;;;;7.81;89.13;98191.61;2167504;81;20988;-82
2022/11/04 05:00:02;;;;;;;32.23;18.47;;;;;;;7.77;89.11;98204.09;2166098;81;21024;-83
2022/11/04 05:03:02;;;;;;;28.40;19.27;;;;;;;7.75;89.38;98192.38;2168677;81;21003;-85
2022/11/04 05:06:02;;;;;;;32.87;18.90;;;;;;;7.76;89.54;98189.35;2166837;81;20965;-83
2022/11/04 05:09:02;;;;;;;37.37;24.07;;;;;;;7.75;89.47;98196.27;2166491;81;20981;-82
2022/11/04 05:12:03;;;;;;;31.63;19.20;;;;;;;7.72;89.39;98193.64;2166628;81;20996;-82
2022/11/04 05:15:03;;;;;;;34.77;20.03;;;;;;;7.70;89.60;98180.19;2166664;81;21001;-82
2022/11/04 05:18:04;;;;;;;37.50;16.07;;;;;;;7.71;89.57;98197.09;2169656;81;20984;-85
2022/11/04 05:21:04;;;;;;;28.93;18.40;;;;;;;8.16;98.16;98181.63;2168414;81;21023;-83
2022/11/04 05:24:04;;;;;;;26.87;17.93;;;;;;;9.37;88.19;98192.25;2168998;81;21070;-83
2022/11/04 05:27:05;;;;;;;31.37;19.03;;;;;;;8.93;85.36;98191.95;2168455;82;21063;-83
2022/11/04 05:30:05;;;;;;;30.67;18.73;;;;;;;8.53;85.95;98190.70;2170857;82;21043;-82
2022/11/04 05:33:06;;;;;;;31.10;18.83;;;;;;;8.30;86.54;98183.51;2168925;81;21336;-83
2022/11/04 05:36:06;;;;;;;28.17;17.57;;;;;;;8.14;87.14;98182.03;2170141;81;20976;-82
2022/11/04 05:39:07;;;;;;;27.70;18.13;;;;;;;8.05;87.44;98193.20;2167564;82;21036;-83
2022/11/04 05:42:07;;;;;;;29.73;18.23;;;;;;;7.96;87.59;98180.09;2168449;81;20968;-83
2022/11/04 05:45:07;;;;;;;32.33;19.53;;;;;;;7.86;88.15;98182.15;2170453;81;21015;-82
2022/11/04 05:48:08;;;;;;;34.03;17.87;;;;;;;7.80;88.12;98182.04;2170556;82;21027;-83
2022/11/04 05:51:08;;;;;;;27.17;17.60;;;;;;;7.76;88.47;98179.83;2168796;81;21012;-83
2022/11/04 05:54:09;;;;;;;32.80;19.40;;;;;;;7.74;88.77;98177.64;2168046;82;20934;-81
2022/11/04 05:57:09;;;;;;;30.03;17.47;;;;;;;7.76;88.72;98178.95;2167876;81;20933;-83
2022/11/04 06:00:09;;;;;;;29.63;17.17;;;;;;;7.76;88.72;98180.26;2166736;82;21063;-85
2022/11/04 06:03:10;;;;;;;27.80;17.83;;;;;;;7.75;88.58;98169.00;2167396;81;21008;-83
2022/11/04 06:06:10;;;;;;;28.80;18.33;;;;;;;7.76;88.57;98175.06;2169924;81;20954;-82
2022/11/04 06:09:11;;;;;;;30.13;17.77;;;;;;;7.79;88.71;98173.80;2167439;81;20972;-85
2022/11/04 06:12:13;;;;;;;30.23;17.80;;;;;;;7.77;88.83;98171.61;2168446;81;21072;-84
2022/11/04 06:15:11;;;;;;;38.63;18.67;;;;;;;7.77;88.53;98174.20;2167769;81;20992;-81
2022/11/04 06:18:12;;;;;;;29.30;17.43;;;;;;;7.75;88.62;98167.70;2170141;81;21020;-86
2022/11/04 06:21:12;;;;;;;31.40;17.83;;;;;;;7.76;88.82;98168.14;2169730;82;21055;-84
2022/11/04 06:24:13;;;;;;;56.93;17.97;;;;;;;7.77;88.57;98170.31;2168150;81;21039;-84
2022/11/04 06:27:15;;;;;;;36.20;17.77;;;;;;;7.82;88.63;98164.78;2169233;81;20988;-84
2022/11/04 06:30:16;;;;;;;31.50;17.57;;;;;;;7.85;88.53;98161.78;2162541;82;21091;-85
2022/11/04 06:33:16;;;;;;;26.60;16.70;;;;;;;7.88;88.33;98164.84;2167643;81;20925;-84
2022/11/04 06:36:16;;;;;;;29.97;17.47;;;;;;;7.91;88.28;98167.48;2166204;81;21075;-84
2022/11/04 06:39:17;;;;;;;25.67;16.17;;;;;;;7.92;88.24;98165.33;2167710;81;20992;-85
2022/11/04 06:42:17;;;;;;;27.47;16.53;;;;;;;8.01;87.99;98164.13;2167349;81;21012;-84
2022/11/04 06:45:17;;;;;;;27.77;16.97;;;;;;;8.09;87.84;98166.39;2166224;81;21040;-82
2022/11/04 06:48:18;;;;;;;22.20;16.57;;;;;;;8.16;87.70;98167.33;2168166;81;21376;-83
2022/11/04 06:51:18;;;;;;;23.83;16.53;;;;;;;8.23;87.51;98158.30;2166645;81;21094;-84
2022/11/04 06:54:18;;;;;;;27.03;16.80;;;;;;;8.28;87.20;98155.75;2165852;81;21035;-83
2022/11/04 06:57:19;;;;;;;22.93;15.33;;;;;;;8.33;87.20;98158.39;2167130;81;21000;-84
2022/11/04 07:00:19;;;;;;;28.13;16.87;;;;;;;8.40;87.03;98159.80;2166344;81;21071;-83
2022/11/04 07:03:20;;;;;;;23.23;16.07;;;;;;;8.49;86.96;98162.48;2165529;81;21097;-84
2022/11/04 07:06:20;;;;;;;23.27;15.60;;;;;;;8.58;86.48;98166.47;2165997;81;20993;-84
2022/11/04 07:09:21;;;;;;;23.53;15.03;;;;;;;8.67;86.31;98163.11;2166612;81;20996;-83
2022/11/04 07:12:22;;;;;;;24.03;14.53;;;;;;;8.76;85.96;98157.98;2167513;81;21480;-85
2022/11/04 07:15:24;;;;;;;25.30;14.90;;;;;;;8.85;85.65;98147.64;2166659;81;21418;-85
2022/11/04 07:18:24;;;;;;;24.97;14.73;;;;;;;8.97;85.30;98151.19;2162067;82;21027;-84
2022/11/04 07:21:24;;;;;;;224.83;23.00;;;;;;;9.06;84.94;98147.35;2168344;81;21551;-83
2022/11/04 07:24:25;;;;;;;28.70;15.77;;;;;;;9.20;84.69;98136.59;2168521;81;21060;-83
2022/11/04 07:27:25;;;;;;;35.90;15.07;;;;;;;9.33;83.97;98140.13;2166744;81;20956;-86
2022/11/04 07:30:25;;;;;;;24.20;14.13;;;;;;;9.35;83.34;98134.07;2165606;82;21035;-84
2022/11/04 07:33:26;;;;;;;22.33;13.67;;;;;;;9.33;83.52;98125.81;2167861;81;20960;-84
2022/11/04 07:36:26;;;;;;;23.63;14.73;;;;;;;9.33;83.11;98125.37;2167281;81;20996;-84
2022/11/04 07:39:27;;;;;;;28.37;15.47;;;;;;;9.38;83.10;98122.80;2166269;81;20992;-83
2022/11/04 07:42:27;;;;;;;27.27;14.83;;;;;;;9.45;83.24;98120.66;2167346;81;21447;-83
2022/11/04 07:45:28;;;;;;;19.53;13.70;;;;;;;9.53;82.94;98117.66;2167858;82;21043;-83
2022/11/04 07:48:28;;;;;;;22.43;15.23;;;;;;;9.67;83.03;98109.93;2167635;81;21000;-83
2022/11/04 07:51:31;;;;;;;19.33;14.30;;;;;;;9.78;82.62;98113.45;2166986;81;20968;-84
2022/11/04 07:54:29;;;;;;;154.57;21.80;;;;;;;9.86;82.28;98102.61;2169728;81;20996;-84
2022/11/04 07:57:29;;;;;;;105.97;18.90;;;;;;;9.92;81.82;98091.33;2169539;81;21001;-84
2022/11/04 08:00:30;;;;;;;41.17;13.73;;;;;;;9.98;81.08;98087.43;2169960;81;20969;-84
2022/11/04 08:03:30;;;;;;;28.20;14.23;;;;;;;10.06;81.54;98092.23;2169998;81;21012;-84
2022/11/04 08:06:30;;;;;;;68.83;17.70;;;;;;;10.21;81.51;98080.11;2169774;81;20977;-84
2022/11/04 08:09:31;;;;;;;19.07;13.00;;;;;;;10.45;80.81;98075.81;2168915;81;21004;-84
2022/11/04 08:12:31;;;;;;;20.43;13.50;;;;;;;10.66;80.70;98066.66;2168662;81;21420;-83
2022/11/04 08:15:32;;;;;;;22.17;13.08;;;;;;;10.97;80.34;98066.62;2170431;81;20953;-83
2022/11/04 08:18:32;;;;;;;17.50;12.20;;;;;;;11.27;79.51;98073.09;2168393;81;21030;-83
2022/11/04 08:21:32;;;;;;;16.82;13.22;;;;;;;11.55;78.26;98052.08;2168448;81;21084;-83
2022/11/04 08:24:33;;;;;;;25.05;12.03;;;;;;;11.85;77.74;98065.03;2170235;81;21064;-82
2022/11/04 08:27:33;;;;;;;19.10;12.68;;;;;;;12.09;76.46;98060.95;2168951;81;21012;-83
2022/11/04 08:30:34;;;;;;;20.45;12.37;;;;;;;12.06;75.05;98066.64;2167790;81;21028;-83
2022/11/04 08:33:35;;;;;;;23.65;12.82;;;;;;;12.06;74.21;98055.73;2170056;81;20946;-82
2022/11/04 08:36:35;;;;;;;41.35;12.95;;;;;;;12.13;75.16;98062.67;2168500;81;21407;-83
2022/11/04 08:39:35;;;;;;;20.97;12.50;;;;;;;12.15;73.63;98057.45;2169626;81;21376;-83
2022/11/04 08:42:35;;;;;;;16.40;12.07;;;;;;;12.09;73.57;98055.72;2168898;81;20972;-82
2022/11/04 08:45:36;;;;;;;18.30;13.32;;;;;;;12.11;73.63;98056.58;2169651;81;20957;-84
2022/11/04 08:48:36;;;;;;;24.57;12.50;;;;;;;12.30;73.63;98047.31;2169718;81;20977;-82
2022/11/04 08:51:37;;;;;;;29.27;13.43;;;;;;;12.41;73.91;98042.87;2169040;81;20936;-83
2022/11/04 08:54:37;;;;;;;24.43;11.73;;;;;;;12.52;72.88;98049.32;2170285;81;20987;-84
2022/11/04 08:57:37;;;;;;;14.05;11.33;;;;;;;12.44;72.19;98053.31;2170914;82;21392;-83
2022/11/04 09:00:38;;;;;;;19.48;11.68;;;;;;;12.28;71.59;98049.95;2168438;81;21020;-84
2022/11/04 09:03:38;;;;;;;13.62;11.33;;;;;;;12.13;72.09;98054.82;2167172;81;21254;-83
2022/11/04 09:06:39;;;;;;;15.90;12.53;;;;;;;12.07;72.78;98046.14;2169084;81;21351;-83
2022/11/04 09:09:39;;;;;;;22.27;12.88;;;;;;;12.02;72.24;98044.00;2168235;81;21570;-83
2022/11/04 09:12:39;;;;;;;27.75;12.53;;;;;;;12.02;73.14;98042.25;2167720;81;21066;-85
2022/11/04 09:15:40;;;;;;;15.85;10.93;;;;;;;12.18;74.07;98030.41;2168732;81;21184;-84
2022/11/04 09:18:40;;;;;;;17.37;11.85;;;;;;;12.23;72.33;98038.65;2169087;81;20964;-85
2022/11/04 09:21:41;;;;;;;24.15;11.50;;;;;;;12.19;72.83;98036.06;2168273;81;21048;-84
2022/11/04 09:24:41;;;;;;;16.65;11.63;;;;;;;12.12;72.45;98030.84;2168572;81;20988;-86
2022/11/04 09:27:41;;;;;;;21.20;12.50;;;;;;;12.06;73.23;98032.20;2167880;81;20964;-85
2022/11/04 09:30:42;;;;;;;16.65;11.60;;;;;;;11.98;73.05;98037.05;2169348;81;20992;-83
2022/11/04 09:33:42;;;;;;;17.90;12.15;;;;;;;11.83;72.82;98037.15;2166806;81;20956;-85
2022/11/04 09:36:43;;;;;;;20.37;12.28;;;;;;;11.71;73.69;98036.75;2167159;81;20960;-84
2022/11/04 09:39:45;;;;;;;53.65;14.40;;;;;;;11.62;74.29;98038.11;2155966;82;20984;-85
2022/11/04 09:42:45;;;;;;;15.98;12.55;;;;;;;11.56;74.32;98028.98;2169183;81;20984;-84
2022/11/04 09:45:46;;;;;;;19.07;12.95;;;;;;;11.51;74.66;98028.14;2169267;81;21033;-84
2022/11/04 09:48:46;;;;;;;19.62;13.10;;;;;;;11.46;75.07;98030.34;2168589;81;21429;-84
2022/11/04 09:51:47;;;;;;;17.60;12.05;;;;;;;11.51;75.39;98026.84;2167258;81;20999;-81
2022/11/04 09:54:47;;;;;;;18.92;12.43;;;;;;;11.56;74.99;98023.33;2169367;81;20937;-84
2022/11/04 09:57:47;;;;;;;76.45;14.47;;;;;;;11.65;75.37;98026.33;2168899;81;20949;-80
2022/11/04 10:00:48;;;;;;;17.77;11.60;;;;;;;11.72;75.04;98019.75;2169107;81;21052;-86
2022/11/04 10:03:48;;;;;;;20.82;14.03;;;;;;;11.73;75.29;98014.95;2168620;81;21051;-83
2022/11/04 10:06:49;;;;;;;19.35;12.43;;;;;;;11.81;75.23;98020.16;2168003;81;20948;-83
2022/11/04 10:09:49;;;;;;;21.10;12.33;;;;;;;11.93;75.46;98006.14;2169486;82;20964;-83
2022/11/04 10:12:49;;;;;;;19.65;12.63;;;;;;;12.06;75.39;98010.41;2169647;81;21001;-83
2022/11/04 10:15:50;;;;;;;42.88;15.78;;;;;;;12.11;74.98;98003.39;2167996;82;21009;-83
2022/11/04 10:18:50;;;;;;;36.77;14.23;;;;;;;12.10;75.27;98002.96;2169754;81;20984;-84
2022/11/04 10:21:51;;;;;;;19.55;12.10;;;;;;;12.07;75.06;98006.47;2169088;82;21396;-83
2022/11/04 10:24:51;;;;;;;23.62;13.25;;;;;;;12.02;75.25;98004.33;2169783;81;20964;-83
2022/11/04 10:27:53;;;;;;;19.60;13.40;;;;;;;12.04;75.52;98007.80;2170428;81;20965;-84
2022/11/04 10:30:54;;;;;;;18.87;13.05;;;;;;;12.09;75.55;98013.00;2169799;81;21051;-84
2022/11/04 10:33:53;;;;;;;41.88;14.95;;;;;;;12.12;75.46;98009.92;2171131;81;20937;-84
2022/11/04 10:36:54;;;;;;;19.30;12.88;;;;;;;12.17;75.52;98008.61;2170473;81;20999;-85
2022/11/04 10:39:54;;;;;;;78.97;16.80;;;;;;;12.24;75.33;98009.43;2170320;81;21067;-84
2022/11/04 10:42:55;;;;;;;24.05;12.70;;;;;;;12.27;75.08;98012.02;2169751;81;21353;-84
2022/11/04 10:45:55;;;;;;;17.42;12.30;;;;;;;12.29;74.91;98013.74;2170410;81;21020;-84
2022/11/04 10:48:56;;;;;;;19.12;11.70;;;;;;;12.31;75.22;98011.11;2169597;81;21023;-85
2022/11/04 10:51:56;;;;;;;20.55;13.03;;;;;;;12.32;75.06;98006.31;2170483;81;20933;-82
2022/11/04 10:54:57;;;;;;;17.12;12.33;;;;;;;12.31;75.10;98003.27;2170080;82;20940;-83
2022/11/04 10:57:57;;;;;;;17.48;12.18;;;;;;;12.32;75.22;98010.23;2171402;81;21012;-83
2022/11/04 11:00:58;;;;;;;25.02;13.22;;;;;;;12.36;75.50;98006.27;2170894;81;21641;-81
2022/11/04 11:03:58;;;;;;;18.37;12.35;;;;;;;12.43;75.27;97997.92;2170053;81;21004;-82
2022/11/04 11:06:58;;;;;;;15.85;12.13;;;;;;;12.49;75.34;97992.62;2169733;82;20957;-84
2022/11/04 11:10:00;;;;;;;15.85;11.45;;;;;;;12.62;75.30;97986.84;2169961;81;21051;-83
2022/11/04 11:13:01;;;;;;;32.05;13.10;;;;;;;12.72;74.99;97990.66;2170624;81;20961;-82
2022/11/04 11:15:59;;;;;;;20.15;11.95;;;;;;;12.81;75.09;97990.13;2169998;81;20960;-79
2022/11/04 11:19:00;;;;;;;16.12;11.45;;;;;;;12.92;74.90;97989.57;2171023;81;21373;-84
2022/11/04 11:22:00;;;;;;;17.32;12.00;;;;;;;12.93;74.35;97986.06;2170512;81;21000;-84
2022/11/04 11:25:00;;;;;;;17.60;12.58;;;;;;;12.94;74.59;97974.70;2168778;81;21012;-85
2022/11/04 11:28:01;;;;;;;17.07;11.95;;;;;;;12.97;74.30;97975.98;2168431;81;20989;-83
2022/11/04 11:31:04;;;;;;;15.38;11.00;;;;;;;12.99;73.98;97970.28;2167260;81;21004;-85
2022/11/04 11:34:03;;;;;;;16.52;12.07;;;;;;;13.00;74.02;97962.44;2168650;82;20950;-83
2022/11/04 11:37:04;;;;;;;122.42;18.50;;;;;;;13.01;73.70;97965.48;2169027;81;20961;-80
2022/11/04 11:40:04;;;;;;;15.15;11.20;;;;;;;13.01;73.52;97956.75;2169410;82;21028;-85
2022/11/04 11:43:04;;;;;;;18.77;12.33;;;;;;;13.01;73.53;97962.86;2169307;81;20953;-84
2022/11/04 11:46:05;;;;;;;107.67;19.17;;;;;;;12.99;73.48;97959.80;2169508;81;21016;-86
2022/11/04 11:49:05;;;;;;;822.02;60.78;;;;;;;12.97;73.85;97958.95;2167069;81;21008;-83
2022/11/04 11:52:06;;;;;;;30.90;14.20;;;;;;;13.32;75.44;97954.20;2167002;81;20976;-85
2022/11/04 11:55:06;;;;;;;30.95;12.68;;;;;;;13.34;73.63;97951.12;2169142;81;21014;-84
2022/11/04 11:58:06;;;;;;;161.60;20.12;;;;;;;13.25;73.52;97943.37;2169434;81;20961;-84
2022/11/04 12:01:07;;;;;;;21.10;12.15;;;;;;;13.18;73.24;97939.11;2168654;81;21012;-84
2022/11/04 12:04:12;;;;;;;20.40;12.28;;;;;;;13.12;73.26;97940.46;2168819;81;21059;-84
2022/11/04 12:07:09;;;;;;;18.60;12.60;;;;;;;13.09;73.39;97936.57;2168860;81;20957;-84
2022/11/04 12:10:09;;;;;;;19.90;12.55;;;;;;;13.02;73.54;97934.47;2168609;81;20960;-83
2022/11/04 12:13:10;;;;;;;18.40;12.05;;;;;;;13.00;73.58;97939.27;2168416;81;21352;-80
2022/11/04 12:16:10;;;;;;;51.75;12.88;;;;;;;12.96;73.76;97938.88;2167980;81;20949;-83
2022/11/04 12:19:11;;;;;;;18.90;12.13;;;;;;;12.95;73.95;97933.22;2167186;82;20993;-83
2022/11/04 12:22:12;;;;;;;15.35;11.50;;;;;;;12.91;74.03;97931.52;2167510;81;21017;-83
2022/11/04 12:25:12;;;;;;;31.20;13.35;;;;;;;12.91;74.08;97930.21;2167641;81;21017;-83
2022/11/04 12:28:12;;;;;;;74.58;17.15;;;;;;;12.94;74.36;97928.86;2168045;81;21031;-78
2022/11/04 12:31:15;;;;;;;24.75;14.78;;;;;;;12.99;74.78;97930.55;2157188;82;21461;-85
2022/11/04 12:34:15;;;;;;;167.45;23.22;;;;;;;13.07;74.63;97927.86;2166727;81;20999;-82
2022/11/04 12:37:15;;;;;;;45.00;13.50;;;;;;;13.11;74.72;97926.06;2166556;82;21024;-83
2022/11/04 12:40:16;;;;;;;25.43;13.08;;;;;;;13.14;74.78;97920.34;2166573;81;20972;-85
2022/11/04 12:43:16;;;;;;;25.25;12.68;;;;;;;13.17;74.61;97921.65;2167008;81;20976;-85
2022/11/04 12:46:17;;;;;;;22.73;13.05;;;;;;;13.22;74.71;97911.97;2167524;81;20996;-84
2022/11/04 12:49:17;;;;;;;18.23;12.37;;;;;;;13.30;74.49;97907.49;2165808;82;20984;-82
2022/11/04 12:52:19;;;;;;;20.05;12.68;;;;;;;13.41;74.64;97895.55;2165637;81;20992;-83
2022/11/04 12:55:19;;;;;;;15.95;11.40;;;;;;;13.49;74.42;97901.54;2166741;81;20996;-82
2022/11/04 12:58:20;;;;;;;34.13;13.15;;;;;;;13.55;74.36;97896.65;2167967;81;20992;-85
2022/11/04 13:01:20;;;;;;;35.88;13.00;;;;;;;13.58;74.38;97893.98;2169774;81;21086;-83
2022/11/04 13:04:20;;;;;;;63.63;13.40;;;;;;;13.62;74.48;97891.73;2167436;81;21851;-83
2022/11/04 13:07:21;;;;;;;129.55;18.52;;;;;;;13.67;74.49;97903.02;2167892;81;21056;-81
2022/11/04 13:10:21;;;;;;;188.68;23.32;;;;;;;13.68;74.32;97899.06;2169164;81;20992;-84
2022/11/04 13:13:22;;;;;;;26.53;11.83;;;;;;;13.66;74.15;97893.42;2169769;81;21431;-83
2022/11/04 13:16:22;;;;;;;72.12;13.00;;;;;;;13.66;74.41;97893.42;2166673;81;20933;-82
2022/11/04 13:19:23;;;;;;;36.73;12.75;;;;;;;13.70;74.37;97897.28;2166421;81;20956;-83
2022/11/04 13:22:23;;;;;;;17.90;11.05;;;;;;;13.78;74.63;97892.36;2165696;81;21484;-83
2022/11/04 13:25:23;;;;;;;14.53;10.30;;;;;;;13.84;74.28;97887.02;2165853;81;21104;-82
2022/11/04 13:28:24;;;;;;;13.62;10.45;;;;;;;13.86;74.14;97884.78;2167843;81;20980;-81
2022/11/04 13:31:24;;;;;;;13.95;9.98;;;;;;;13.88;74.30;97893.53;2166472;81;20997;-81
2022/11/04 13:34:26;;;;;;;22.58;10.65;;;;;;;13.89;74.28;97886.08;2166647;82;20992;-83
2022/11/04 13:37:25;;;;;;;17.92;10.18;;;;;;;13.87;74.06;97890.90;2167094;81;21677;-81
2022/11/04 13:40:25;;;;;;;18.75;9.93;;;;;;;13.85;74.03;97892.68;2166698;81;21144;-82
2022/11/04 13:43:38;;;;;;;18.23;10.25;;;;;;;13.81;74.06;97883.13;2166911;81;21047;-82
2022/11/04 13:46:38;;;;;;;127.42;17.95;;;;;;;13.76;74.16;97886.27;2167387;81;20991;-80
2022/11/04 13:49:39;;;;;;;15.45;10.65;;;;;;;13.69;74.34;97891.61;2168546;81;21027;-78
2022/11/04 13:52:39;;;;;;;39.63;12.00;;;;;;;13.66;74.37;97893.42;2166109;81;20956;-82
2022/11/04 13:55:40;;;;;;;47.78;12.35;;;;;;;13.64;74.66;97903.06;2168242;81;20976;-80
2022/11/04 13:58:40;;;;;;;61.80;12.85;;;;;;;13.60;74.43;97902.69;2168581;81;20976;-82
2022/11/04 14:01:40;;;;;;;19.62;12.05;;;;;;;13.54;74.65;97895.78;2166475;81;21063;-82
2022/11/04 14:04:41;;;;;;;16.48;12.25;;;;;;;13.49;74.81;97898.05;2168080;81;21012;-82
2022/11/04 14:07:41;;;;;;;289.25;29.35;;;;;;;13.45;74.92;97894.61;2166876;81;21004;-82
2022/11/04 14:10:44;;;;;;;21.25;11.68;;;;;;;13.39;75.20;97900.81;2154631;82;21001;-82
2022/11/04 14:13:44;;;;;;;18.82;10.38;;;;;;;13.37;75.47;97905.20;2166155;81;21218;-83
2022/11/04 14:16:44;;;;;;;15.03;10.23;;;;;;;13.31;75.45;97905.30;2167450;81;21405;-82
2022/11/04 14:19:45;;;;;;;12.58;9.95;;;;;;;13.25;75.50;97894.89;2166958;81;20972;-79
2022/11/04 14:22:46;;;;;;;19.90;10.05;;;;;;;13.20;75.74;97894.09;2163694;82;20996;-80
2022/11/04 14:25:45;;;;;;;19.07;10.45;;;;;;;13.15;75.94;97898.94;2168452;81;20937;-84